Time;durP1;ratioP1;P1;durP2;ratioP2;P2;SDS_P1;SDS_P2;PMS_P1;PMS_P2;Temp;Humidity;BMP_temperature;BMP_pressure;BME280_temperature;BME280_humidity;BME280_pressure;Samples;Min_cycle;Max_cycle;Signal;HPM_P1;HPM_P2
2021/12/12 00:02:22;;;;;;;141.88;49.67;;;;;;;-3.27;89.30;99945.91;8421297;28;20646;-82
2021/12/12 00:06:29;;;;;;;132.57;45.15;;;;;;;-3.39;89.22;99947.50;8420688;28;20046;-82
2021/12/12 00:10:32;;;;;;;129.90;48.00;;;;;;;-3.43;89.02;99938.31;8359883;28;20136;-83
2021/12/12 00:14:35;;;;;;;123.75;43.97;;;;;;;-3.53;88.85;99956.38;8371592;28;20041;-82
2021/12/12 00:18:37;;;;;;;130.45;46.17;;;;;;;-3.66;88.56;99951.03;8363411;28;20415;-82
2021/12/12 00:22:38;;;;;;;149.45;48.92;;;;;;;-3.79;88.44;99940.41;8380873;28;20052;-82
2021/12/12 00:26:40;;;;;;;162.40;52.58;;;;;;;-3.80;88.46;99938.78;8361551;28;20041;-82
2021/12/12 00:30:40;;;;;;;149.60;51.95;;;;;;;-3.77;88.02;99938.41;8370708;28;20068;-83
2021/12/12 00:34:46;;;;;;;139.48;51.08;;;;;;;-3.69;88.16;99940.84;8362729;28;20040;-83
2021/12/12 00:38:50;;;;;;;168.30;59.13;;;;;;;-3.64;87.50;99949.00;8383326;28;20040;-83
2021/12/12 00:42:54;;;;;;;158.15;55.33;;;;;;;-3.60;87.07;99934.44;8354041;28;20048;-82
2021/12/12 00:46:58;;;;;;;141.43;45.53;;;;;;;-3.48;87.37;99943.38;8380360;28;20049;-83
2021/12/12 00:51:01;;;;;;;136.57;43.95;;;;;;;-3.33;87.31;99951.97;8424086;28;20051;-82
2021/12/12 00:55:03;;;;;;;141.30;44.05;;;;;;;-3.17;86.99;99956.91;8407309;28;20078;-84
2021/12/12 00:59:05;;;;;;;127.50;41.88;;;;;;;-3.02;87.29;99960.22;8412928;28;20044;-83
2021/12/12 01:03:08;;;;;;;151.30;41.78;;;;;;;-2.90;86.97;99962.25;8420238;28;20051;-83
2021/12/12 01:07:14;;;;;;;134.23;36.83;;;;;;;-2.84;87.58;99956.16;8402549;28;20040;-82
2021/12/12 01:11:22;;;;;;;145.05;35.60;;;;;;;-2.83;88.00;99957.78;8417761;28;20040;-83
2021/12/12 01:15:35;;;;;;;145.85;34.55;;;;;;;-2.87;88.86;99961.88;8407739;28;20041;-82
2021/12/12 01:19:41;;;;;;;201.60;30.92;;;;;;;-2.87;88.90;99956.56;8409043;28;20037;-83
2021/12/12 01:23:47;;;;;;;196.75;32.17;;;;;;;-2.87;89.19;99951.28;8403567;28;20382;-83
2021/12/12 01:27:49;;;;;;;94.03;29.10;;;;;;;-2.86;89.27;99958.22;8398067;28;20052;-84
2021/12/12 01:31:50;;;;;;;140.57;32.20;;;;;;;-2.89;89.45;99959.41;8400590;28;20037;-83
2021/12/12 01:35:52;;;;;;;124.25;30.92;;;;;;;-2.88;89.76;99960.22;8407554;28;20047;-84
2021/12/12 01:40:23;;;;;;;118.85;30.17;;;;;;;-2.88;89.73;99954.94;8390473;28;20067;-83
2021/12/12 01:44:38;;;;;;;102.72;28.45;;;;;;;-2.87;89.98;99961.88;8319978;28;20057;-84
2021/12/12 01:48:41;;;;;;;90.90;26.88;;;;;;;-2.91;90.13;99960.66;8316894;28;20172;-83
2021/12/12 01:52:42;;;;;;;84.40;27.67;;;;;;;-2.87;90.13;99961.88;8316845;28;20441;-82
2021/12/12 01:56:53;;;;;;;81.28;26.70;;;;;;;-2.85;89.94;99959.81;8306444;28;20061;-82
2021/12/12 02:00:59;;;;;;;75.95;26.08;;;;;;;-2.84;90.20;99953.53;8289102;28;20084;-83
2021/12/12 02:05:10;;;;;;;90.00;24.88;;;;;;;-2.85;90.02;99954.53;8325305;28;20054;-83
2021/12/12 02:09:13;;;;;;;72.70;23.02;;;;;;;-2.83;90.19;99941.94;8328620;28;20057;-84
2021/12/12 02:13:17;;;;;;;112.97;23.02;;;;;;;-2.80;90.06;99941.56;8326272;28;20041;-83
2021/12/12 02:17:26;;;;;;;81.30;24.58;;;;;;;-2.78;89.96;99944.78;8329433;28;21080;-82
2021/12/12 02:38:54;;;;;;;84.32;25.08;;;;;;;-2.80;90.26;99941.56;8404303;28;20045;-82
2021/12/12 02:42:55;;;;;;;97.45;24.55;;;;;;;-2.83;90.31;99947.22;8417811;28;20044;-82
2021/12/12 02:46:59;;;;;;;84.07;23.70;;;;;;;-2.85;90.15;99959.81;8411183;28;20500;-82
2021/12/12 02:51:05;;;;;;;87.32;21.48;;;;;;;-2.90;90.54;99962.25;8395727;28;20440;-82
2021/12/12 02:55:11;;;;;;;82.63;19.48;;;;;;;-3.00;90.65;99967.94;8403561;28;20048;-82
2021/12/12 02:59:17;;;;;;;57.35;18.67;;;;;;;-2.99;90.81;99970.38;8421700;28;20063;-83
2021/12/12 03:03:18;;;;;;;95.22;18.77;;;;;;;-2.99;90.61;99980.94;8402922;28;20498;-82
2021/12/12 03:07:19;;;;;;;67.15;19.50;;;;;;;-2.99;90.66;99985.41;8403154;28;20453;-83
2021/12/12 03:11:20;;;;;;;61.00;19.10;;;;;;;-3.00;90.69;99979.31;8403244;28;20185;-83
2021/12/12 03:15:26;;;;;;;90.85;17.67;;;;;;;-2.98;90.66;99987.06;8415161;28;20049;-82
2021/12/12 03:19:27;;;;;;;62.72;19.63;;;;;;;-3.00;90.76;99995.16;8407945;28;20043;-82
2021/12/12 03:23:34;;;;;;;55.85;18.23;;;;;;;-2.95;90.82;100001.69;8427888;28;20374;-83
2021/12/12 03:27:35;;;;;;;57.05;18.20;;;;;;;-2.93;90.42;100005.75;8432730;28;20059;-83
2021/12/12 03:31:40;;;;;;;66.00;17.98;;;;;;;-2.93;90.25;100011.06;8431749;28;20060;-83
2021/12/12 03:35:45;;;;;;;101.80;20.67;;;;;;;-2.91;90.30;100019.59;8432344;28;20044;-83
2021/12/12 03:39:49;;;;;;;70.63;18.13;;;;;;;-2.95;90.36;100017.53;8432124;28;20052;-82
2021/12/12 03:43:56;;;;;;;56.40;18.60;;;;;;;-2.94;90.21;100024.44;8431949;28;20056;-83
2021/12/12 03:48:09;;;;;;;57.22;18.13;;;;;;;-2.99;90.03;100036.44;8431810;28;20082;-83
2021/12/12 03:52:11;;;;;;;61.47;18.63;;;;;;;-2.95;90.24;100038.69;8430940;28;20055;-82
2021/12/12 03:56:15;;;;;;;61.20;19.25;;;;;;;-2.99;90.13;100033.81;8431624;28;20105;-82
2021/12/12 04:00:24;;;;;;;69.30;19.58;;;;;;;-3.00;90.50;100048.03;8430238;28;20056;-83
2021/12/12 04:04:27;;;;;;;63.50;19.55;;;;;;;-2.97;90.51;100046.81;8430666;28;20050;-83
2021/12/12 04:08:30;;;;;;;82.93;20.25;;;;;;;-2.94;90.28;100056.16;8413582;28;20144;-84
2021/12/12 04:12:32;;;;;;;61.83;18.65;;;;;;;-2.96;90.18;100047.66;8429971;28;20044;-84
2021/12/12 04:16:36;;;;;;;60.45;19.50;;;;;;;-2.96;89.96;100058.22;8398093;28;20093;-84
2021/12/12 04:20:38;;;;;;;74.03;18.63;;;;;;;-2.95;90.46;100065.09;8360803;28;20127;-83
2021/12/12 04:24:42;;;;;;;75.50;17.77;;;;;;;-2.97;90.43;100061.88;8428770;28;20051;-83
2021/12/12 04:28:44;;;;;;;77.75;17.90;;;;;;;-2.97;90.70;100062.69;8430317;28;20040;-83
2021/12/12 04:32:45;;;;;;;77.68;18.92;;;;;;;-2.99;90.93;100076.09;8430445;28;20125;-83
2021/12/12 04:36:48;;;;;;;69.93;18.33;;;;;;;-2.96;90.86;100074.06;8429385;28;20040;-83
2021/12/12 04:40:49;;;;;;;65.13;19.85;;;;;;;-2.92;90.96;100077.94;8430334;28;20044;-84
2021/12/12 04:44:53;;;;;;;71.38;18.77;;;;;;;-2.87;90.88;100083.44;8394796;28;20064;-82
2021/12/12 04:53:29;;;;;;;64.13;20.25;;;;;;;-2.83;90.95;100069.63;8396503;28;20052;-83
2021/12/12 04:57:36;;;;;;;76.72;19.92;;;;;;;-2.80;90.86;100084.31;8428329;28;20139;-83
2021/12/12 05:01:40;;;;;;;72.35;18.77;;;;;;;-2.76;90.84;100077.59;8428461;28;20039;-83
2021/12/12 05:05:54;;;;;;;67.68;19.23;;;;;;;-2.74;91.29;100083.47;8429386;28;20043;-83
2021/12/12 05:10:05;;;;;;;72.88;19.88;;;;;;;-2.74;91.19;100078.19;8428095;28;20478;-83
2021/12/12 05:14:21;;;;;;;71.00;20.40;;;;;;;-2.69;91.43;100081.06;8428549;28;20454;-83
2021/12/12 05:18:32;;;;;;;75.38;20.73;;;;;;;-2.65;91.29;100082.31;8430300;28;20044;-83
2021/12/12 05:22:37;;;;;;;75.97;20.13;;;;;;;-2.63;91.24;100069.69;8426007;28;20090;-84
2021/12/12 05:26:46;;;;;;;78.07;19.88;;;;;;;-2.62;91.31;100073.97;8429267;28;20716;-83
2021/12/12 05:30:49;;;;;;;83.45;22.17;;;;;;;-2.61;91.33;100068.50;8427016;28;20413;-83
2021/12/12 05:34:51;;;;;;;90.53;19.98;;;;;;;-2.60;91.51;100058.72;8429185;28;20485;-83
2021/12/12 05:38:52;;;;;;;75.10;19.05;;;;;;;-2.62;91.41;100066.84;8416629;28;20461;-84
2021/12/12 05:42:59;;;;;;;65.38;19.20;;;;;;;-2.67;91.74;100089.63;8435084;28;20048;-83
2021/12/12 05:47:04;;;;;;;89.95;21.17;;;;;;;-2.68;92.19;100087.97;8433611;28;20036;-84
2021/12/12 05:51:05;;;;;;;107.93;22.55;;;;;;;-2.75;92.53;100108.31;8435550;28;20040;-84
2021/12/12 05:55:07;;;;;;;106.65;21.23;;;;;;;-2.84;93.57;100104.19;8416659;28;20056;-84
2021/12/12 05:59:11;;;;;;;102.15;22.90;;;;;;;-2.81;93.40;100103.81;8432653;28;20040;-84
2021/12/12 06:03:15;;;;;;;80.15;21.55;;;;;;;-2.83;93.72;100111.13;8434024;28;20047;-83
2021/12/12 06:07:19;;;;;;;82.63;20.65;;;;;;;-2.89;93.70;100109.25;8433636;28;20044;-83
2021/12/12 06:11:22;;;;;;;74.97;22.05;;;;;;;-2.87;93.92;100109.88;8397276;28;20057;-83
2021/12/12 06:15:27;;;;;;;83.78;23.95;;;;;;;-2.85;93.82;100118.41;8397288;28;20053;-83
2021/12/12 06:19:30;;;;;;;93.63;22.05;;;;;;;-2.82;93.64;100120.69;8397660;28;20044;-83
2021/12/12 06:23:33;;;;;;;82.13;25.02;;;;;;;-2.78;93.54;100119.25;8396863;28;20260;-83
2021/12/12 06:27:35;;;;;;;92.03;24.02;;;;;;;-2.81;93.64;100130.25;8380095;28;20044;-83
2021/12/12 06:31:39;;;;;;;91.53;22.55;;;;;;;-2.80;93.61;100145.91;8396532;28;20036;-84
2021/12/12 06:35:40;;;;;;;79.97;21.55;;;;;;;-2.78;93.22;100135.94;8378082;28;20103;-83
2021/12/12 06:39:42;;;;;;;62.33;20.25;;;;;;;-2.78;93.13;100140.41;8348752;28;20449;-83
2021/12/12 06:43:43;;;;;;;74.85;21.50;;;;;;;-2.83;92.63;100142.84;8399937;28;20060;-84
2021/12/12 06:47:45;;;;;;;78.40;21.17;;;;;;;-2.88;93.02;100155.81;8424427;28;20048;-84
2021/12/12 06:51:51;;;;;;;85.13;21.98;;;;;;;-2.93;93.24;100152.97;8434432;28;20082;-83
2021/12/12 06:55:53;;;;;;;87.22;21.48;;;;;;;-2.94;93.27;100162.72;8398492;28;20412;-84
2021/12/12 06:59:56;;;;;;;73.00;21.90;;;;;;;-2.97;93.14;100157.00;8433404;28;20047;-84
2021/12/12 07:03:57;;;;;;;68.70;22.00;;;;;;;-2.95;93.28;100154.97;8432629;28;20051;-83
2021/12/12 07:07:59;;;;;;;102.70;23.67;;;;;;;-3.03;93.16;100153.31;8432452;28;20048;-86
2021/12/12 07:12:05;;;;;;;98.30;24.98;;;;;;;-3.12;92.91;100165.84;8433693;28;20040;-87
2021/12/12 07:16:06;;;;;;;78.85;23.35;;;;;;;-3.33;93.12;100158.00;8398450;28;20048;-87
2021/12/12 07:20:10;;;;;;;72.90;23.83;;;;;;;-3.43;93.03;100162.81;8432070;28;20508;-86
2021/12/12 07:24:11;;;;;;;85.32;26.45;;;;;;;-3.57;92.75;100155.81;8348568;28;20625;-86
2021/12/12 07:28:13;;;;;;;70.97;25.15;;;;;;;-3.62;92.55;100163.47;8355132;28;20056;-88
2021/12/12 07:32:14;;;;;;;81.10;32.78;;;;;;;-3.80;91.47;100176.31;8360509;28;20554;-86
2021/12/12 07:36:18;;;;;;;76.00;29.33;;;;;;;-3.78;91.66;100190.16;8339574;28;20049;-87
2021/12/12 07:40:20;;;;;;;76.28;29.45;;;;;;;-3.74;91.82;100194.03;8353590;28;20553;-87
2021/12/12 07:44:25;;;;;;;77.63;30.05;;;;;;;-3.83;91.32;100188.06;8356982;28;20057;-87
2021/12/12 07:48:25;;;;;;;83.20;29.83;;;;;;;-3.75;91.31;100195.06;8342654;28;20142;-84
2021/12/12 07:52:28;;;;;;;98.45;30.25;;;;;;;-3.69;91.12;100200.38;8341570;28;20490;-82
2021/12/12 07:56:31;;;;;;;97.68;28.65;;;;;;;-3.77;90.64;100199.72;8359925;28;20402;-84
2021/12/12 08:00:32;;;;;;;88.72;26.63;;;;;;;-3.92;91.18;100210.34;8388393;28;20067;-83
2021/12/12 08:04:34;;;;;;;95.85;29.92;;;;;;;-3.84;91.04;100208.38;8398065;28;20068;-84
2021/12/12 08:08:35;;;;;;;162.85;39.92;;;;;;;-3.81;90.82;100216.94;8360832;28;20052;-85
2021/12/12 08:12:36;;;;;;;155.52;38.97;;;;;;;-3.76;90.71;100214.53;8358379;28;20049;-85
2021/12/12 08:16:38;;;;;;;141.40;40.88;;;;;;;-3.81;90.69;100220.38;8363080;28;20048;-85
2021/12/12 08:20:39;;;;;;;177.52;55.78;;;;;;;-3.83;90.01;100225.84;8363157;28;20090;-84
2021/12/12 08:24:41;;;;;;;151.35;47.85;;;;;;;-3.89;90.60;100226.59;8391814;28;20052;-85
2021/12/12 08:28:43;;;;;;;244.23;83.82;;;;;;;-3.65;90.15;100221.97;8377019;28;20049;-85
2021/12/12 08:32:47;;;;;;;224.98;87.50;;;;;;;-3.66;89.89;100226.41;8377207;28;20044;-85
2021/12/12 08:36:52;;;;;;;155.07;57.75;;;;;;;-3.67;90.07;100224.78;8391922;28;20091;-85
2021/12/12 08:40:56;;;;;;;125.82;44.83;;;;;;;-3.56;89.93;100218.16;8429167;28;20448;-84
2021/12/12 08:44:59;;;;;;;106.63;40.33;;;;;;;-3.40;89.88;100225.81;8422405;28;20391;-84
2021/12/12 08:49:01;;;;;;;131.43;43.38;;;;;;;-3.29;89.67;100227.94;8403808;28;20089;-84
2021/12/12 08:53:03;;;;;;;138.98;42.25;;;;;;;-3.16;89.74;100238.59;8424271;28;20354;-84
2021/12/12 08:57:10;;;;;;;124.72;36.90;;;;;;;-2.90;89.45;100231.84;8426657;28;20056;-84
2021/12/12 09:01:15;;;;;;;92.50;31.85;;;;;;;-2.65;88.94;100240.97;8356901;28;20482;-84
2021/12/12 09:05:20;;;;;;;65.10;23.92;;;;;;;-2.38;88.54;100242.69;8402744;28;20055;-85
2021/12/12 09:09:24;;;;;;;56.67;21.45;;;;;;;-2.18;88.12;100240.97;8383942;28;20395;-85
2021/12/12 09:13:34;;;;;;;54.72;21.63;;;;;;;-2.05;87.86;100226.13;8398916;28;20047;-84
2021/12/12 09:17:42;;;;;;;54.42;21.65;;;;;;;-1.90;88.13;100232.06;8391735;28;20040;-85
2021/12/12 09:21:51;;;;;;;61.10;23.73;;;;;;;-1.67;87.68;100235.19;8413535;28;20093;-84
2021/12/12 09:26:07;;;;;;;57.70;23.67;;;;;;;-1.42;87.63;100238.84;8396930;28;20044;-84
2021/12/12 09:30:12;;;;;;;63.50;23.83;;;;;;;-1.21;87.44;100239.66;8423482;28;20462;-84
2021/12/12 09:34:19;;;;;;;76.80;27.52;;;;;;;-1.07;87.22;100236.00;8413009;28;20432;-85
2021/12/12 09:38:30;;;;;;;75.78;28.58;;;;;;;-0.97;87.35;100231.09;8403522;28;20494;-85
2021/12/12 09:42:47;;;;;;;88.28;32.08;;;;;;;-0.93;87.56;100229.66;8425413;28;20112;-85
2021/12/12 09:47:31;;;;;;;109.78;38.45;;;;;;;-0.80;87.52;100221.69;8424697;28;20044;-84
2021/12/12 09:51:34;;;;;;;125.13;39.00;;;;;;;-0.69;86.59;100218.41;8425239;28;20043;-84
2021/12/12 09:55:53;;;;;;;106.03;36.47;;;;;;;-0.64;86.81;100215.94;8427129;28;20157;-82
2021/12/12 10:00:12;;;;;;;108.95;36.42;;;;;;;-0.51;86.86;100205.28;8408974;28;20072;-83
2021/12/12 10:04:17;;;;;;;94.55;32.92;;;;;;;-0.37;86.58;100191.97;8419879;28;20051;-83
2021/12/12 10:08:54;;;;;;;93.13;33.25;;;;;;;-0.28;85.93;100188.03;8426330;28;20044;-84
2021/12/12 10:13:02;;;;;;;124.55;45.72;;;;;;;-0.17;86.16;100184.72;8425630;28;20489;-82
2021/12/12 10:17:21;;;;;;;93.10;36.17;;;;;;;-0.06;85.79;100181.38;8412422;28;20091;-84
2021/12/12 10:21:57;;;;;;;85.63;31.77;;;;;;;0.02;85.11;100180.28;8428575;28;20122;-83
2021/12/12 10:26:10;;;;;;;78.82;28.67;;;;;;;-0.01;85.20;100173.59;8311684;28;20058;-82
2021/12/12 10:30:17;;;;;;;76.18;26.80;;;;;;;0.07;84.43;100164.53;8313830;28;20054;-84
2021/12/12 10:34:23;;;;;;;80.38;28.77;;;;;;;0.13;84.92;100164.50;8297757;28;20052;-82
2021/12/12 10:38:34;;;;;;;77.60;31.98;;;;;;;0.30;85.12;100154.97;8313753;28;20046;-82
2021/12/12 10:42:45;;;;;;;74.50;28.42;;;;;;;0.45;84.19;100153.84;8313537;28;20136;-82
2021/12/12 10:46:54;;;;;;;71.68;27.98;;;;;;;0.54;84.38;100149.84;8313805;28;20422;-83
2021/12/12 10:51:06;;;;;;;65.80;26.27;;;;;;;0.58;83.25;100153.72;8330091;28;20132;-82
2021/12/12 10:55:17;;;;;;;72.93;29.88;;;;;;;0.67;83.57;100155.06;8312838;28;20607;-83
2021/12/12 10:59:17;;;;;;;71.45;26.63;;;;;;;0.66;83.12;100161.41;8344619;28;20048;-83
2021/12/12 11:03:42;;;;;;;76.68;28.98;;;;;;;0.63;83.65;100153.88;8433128;28;20055;-82
2021/12/12 11:07:57;;;;;;;76.20;29.90;;;;;;;0.64;83.44;100155.50;8432513;28;20055;-83
2021/12/12 11:12:09;;;;;;;69.95;28.17;;;;;;;0.63;83.50;100159.22;8433007;28;20586;-82
2021/12/12 11:16:27;;;;;;;62.67;25.00;;;;;;;0.66;82.72;100148.13;8431182;28;20097;-82
2021/12/12 11:20:46;;;;;;;72.70;27.40;;;;;;;0.64;82.99;100156.31;8432459;28;20135;-82
2021/12/12 11:24:58;;;;;;;59.63;26.88;;;;;;;0.69;82.74;100166.28;8431619;28;20127;-84
2021/12/12 11:29:03;;;;;;;64.93;26.40;;;;;;;0.68;82.31;100162.03;8430970;28;20477;-82
2021/12/12 11:33:06;;;;;;;66.05;25.67;;;;;;;0.69;82.37;100163.63;8431580;28;20056;-81
2021/12/12 11:37:13;;;;;;;57.00;22.48;;;;;;;0.75;83.00;100157.44;8431157;28;20044;-82
2021/12/12 11:41:26;;;;;;;56.67;22.35;;;;;;;0.89;83.46;100150.16;8432344;28;20048;-82
2021/12/12 11:45:39;;;;;;;66.53;29.48;;;;;;;0.99;82.90;100159.25;8430885;28;20052;-82
2021/12/12 11:50:15;;;;;;;91.63;34.72;;;;;;;1.20;82.25;100145.53;8415474;28;20075;-83
2021/12/12 11:54:46;;;;;;;100.57;39.30;;;;;;;1.21;81.90;100152.47;8430194;28;20044;-82
2021/12/12 11:58:56;;;;;;;56.88;22.63;;;;;;;1.08;81.88;100152.59;8430355;28;20052;-83
2021/12/12 12:03:24;;;;;;;58.70;21.92;;;;;;;1.01;82.06;100135.88;8429203;28;20143;-83
2021/12/12 12:07:48;;;;;;;52.47;22.10;;;;;;;0.96;81.69;100135.75;8428859;28;20071;-83
2021/12/12 12:12:10;;;;;;;54.80;21.77;;;;;;;0.89;82.39;100145.66;8294737;28;20061;-83
2021/12/12 12:16:48;;;;;;;56.90;21.75;;;;;;;0.79;81.81;100143.47;8292401;28;20556;-83
2021/12/12 12:20:59;;;;;;;53.90;22.90;;;;;;;0.72;82.92;100147.25;8244161;28;20055;-83
2021/12/12 12:25:15;;;;;;;67.28;25.33;;;;;;;0.66;83.32;100143.63;8245337;28;20140;-83
2021/12/12 12:29:55;;;;;;;86.45;31.52;;;;;;;0.77;83.13;100139.44;8294203;28;20050;-83
2021/12/12 12:34:33;;;;;;;65.80;26.25;;;;;;;1.16;82.86;100135.53;8165419;29;20430;-83
2021/12/12 12:39:19;;;;;;;73.47;25.10;;;;;;;1.47;83.07;100134.56;8165559;29;20557;-85
2021/12/12 12:44:01;;;;;;;56.22;23.30;;;;;;;2.04;82.55;100139.28;8102630;29;20131;-84
2021/12/12 12:48:53;;;;;;;56.92;21.67;;;;;;;2.48;78.83;100137.16;8056291;29;20459;-83
2021/12/12 12:53:13;;;;;;;57.95;23.10;;;;;;;2.63;77.71;100134.84;8102130;29;20160;-83
2021/12/12 12:57:31;;;;;;;58.60;22.67;;;;;;;2.44;77.04;100136.78;8097505;29;20147;-84
2021/12/12 13:01:50;;;;;;;59.85;25.52;;;;;;;2.10;77.39;100130.38;8118294;29;20345;-83
2021/12/12 13:06:07;;;;;;;60.22;22.95;;;;;;;1.76;78.77;100139.06;8149059;29;20535;-83
2021/12/12 13:10:11;;;;;;;58.03;23.25;;;;;;;1.66;79.24;100138.78;8202331;28;20050;-83
2021/12/12 13:14:34;;;;;;;57.50;24.77;;;;;;;1.68;79.55;100137.53;8256884;28;20050;-83
2021/12/12 13:18:58;;;;;;;57.47;22.90;;;;;;;1.81;78.88;100136.53;8248226;28;20510;-84
2021/12/12 13:23:28;;;;;;;53.45;22.27;;;;;;;1.57;79.58;100145.47;8326099;28;20412;-84
2021/12/12 13:32:25;;;;;;;55.45;22.42;;;;;;;1.56;80.72;100143.84;8343828;28;20213;-85
2021/12/12 13:36:50;;;;;;;59.45;24.80;;;;;;;1.58;81.09;100131.13;8325099;28;20057;-84
2021/12/12 13:41:14;;;;;;;79.07;32.10;;;;;;;1.50;80.90;100139.41;8325038;28;20053;-84
2021/12/12 13:45:38;;;;;;;78.35;31.10;;;;;;;1.34;81.02;100145.34;8324823;28;20049;-84
2021/12/12 13:49:48;;;;;;;92.68;38.17;;;;;;;1.07;81.79;100144.84;8261367;28;20058;-85
2021/12/12 13:53:56;;;;;;;130.20;48.35;;;;;;;0.73;82.50;100144.38;8290321;28;20058;-88
2021/12/12 13:58:05;;;;;;;165.52;59.50;;;;;;;0.37;83.74;100150.41;8293986;28;20054;-90
2021/12/12 14:02:08;;;;;;;205.85;73.38;;;;;;;0.07;84.32;100145.94;8282778;28;20496;-92
2021/12/12 14:06:13;;;;;;;173.02;61.58;;;;;;;-0.12;84.38;100161.00;8303796;28;20491;-90
2021/12/12 14:10:21;;;;;;;160.18;57.97;;;;;;;-0.27;85.66;100160.47;8363729;28;20045;-88
2021/12/12 14:14:24;;;;;;;196.93;67.65;;;;;;;-0.39;85.97;100164.81;8347452;28;20068;-89
2021/12/12 14:18:30;;;;;;;201.43;67.50;;;;;;;-0.61;86.60;100167.75;8348693;28;20088;-87
2021/12/12 14:22:32;;;;;;;195.98;65.05;;;;;;;-0.75;86.68;100166.19;8365716;28;20055;-90
2021/12/12 14:26:38;;;;;;;213.35;66.35;;;;;;;-0.92;87.03;100159.69;8412666;28;20060;-90
2021/12/12 14:30:41;;;;;;;182.10;60.90;;;;;;;-1.04;87.01;100162.16;8434817;28;20052;-91
2021/12/12 14:34:53;;;;;;;164.60;57.45;;;;;;;-1.20;87.34;100156.50;8435480;28;20126;-88
2021/12/12 14:38:57;;;;;;;189.32;58.55;;;;;;;-1.27;86.90;100156.53;8434312;28;20044;-87
2021/12/12 14:43:17;;;;;;;164.52;54.58;;;;;;;-1.44;87.18;100150.84;8435470;28;20093;-88
2021/12/12 14:47:26;;;;;;;168.90;55.42;;;;;;;-1.56;86.90;100147.16;8434457;28;20048;-91
2021/12/12 14:51:30;;;;;;;209.88;62.83;;;;;;;-1.72;87.33;100131.69;8433920;28;20097;-90
2021/12/12 14:55:44;;;;;;;227.63;73.15;;;;;;;-1.72;87.42;100136.97;8434105;28;20059;-90
2021/12/12 14:59:47;;;;;;;208.45;66.45;;;;;;;-1.71;87.66;100143.91;8431753;28;20079;-90
2021/12/12 15:03:51;;;;;;;180.65;57.92;;;;;;;-1.64;86.93;100143.91;8426998;28;20112;-87
2021/12/12 15:07:54;;;;;;;179.95;58.65;;;;;;;-1.60;86.75;100145.94;8432511;28;20048;-87
2021/12/12 15:11:59;;;;;;;167.07;55.65;;;;;;;-1.55;86.76;100143.50;8430078;28;20048;-85
2021/12/12 15:16:04;;;;;;;154.93;53.17;;;;;;;-1.59;86.57;100142.28;8431495;28;20052;-89
2021/12/12 15:20:09;;;;;;;157.18;54.60;;;;;;;-1.56;86.97;100147.16;8431133;28;20055;-88
2021/12/12 15:24:20;;;;;;;146.50;53.90;;;;;;;-1.53;86.42;100152.03;8431855;28;20044;-85
2021/12/12 15:28:23;;;;;;;152.10;54.70;;;;;;;-1.49;86.33;100158.59;8414343;28;20052;-86
2021/12/12 15:32:27;;;;;;;142.73;52.92;;;;;;;-1.50;86.29;100172.84;8431766;28;20404;-88
2021/12/12 15:36:33;;;;;;;144.40;51.70;;;;;;;-1.51;86.45;100165.91;8431875;28;20094;-86
2021/12/12 15:40:38;;;;;;;147.90;51.45;;;;;;;-1.52;86.27;100158.97;8430420;28;20508;-87
2021/12/12 15:44:43;;;;;;;197.23;59.40;;;;;;;-1.54;86.41;100161.03;8381136;28;20587;-86
2021/12/12 15:48:49;;;;;;;213.52;59.35;;;;;;;-1.58;86.70;100170.38;8432361;28;20048;-90
2021/12/12 15:52:57;;;;;;;179.40;55.88;;;;;;;-1.57;86.24;100156.13;8430724;28;20055;-88
2021/12/12 15:57:10;;;;;;;181.80;55.78;;;;;;;-1.59;86.80;100158.19;8430948;28;20052;-89
2021/12/12 16:01:17;;;;;;;164.95;53.75;;;;;;;-1.58;86.38;100170.38;8428709;28;20048;-90
2021/12/12 16:05:31;;;;;;;167.65;53.10;;;;;;;-1.62;86.96;100163.88;8430858;28;20044;-86
2021/12/12 16:09:36;;;;;;;164.13;53.83;;;;;;;-1.66;86.81;100167.94;8429694;28;20501;-86
2021/12/12 16:13:42;;;;;;;154.27;51.97;;;;;;;-1.73;87.25;100161.81;8412855;28;20108;-89
2021/12/12 16:17:49;;;;;;;157.45;53.30;;;;;;;-1.77;87.41;100161.44;8429528;28;20040;-90
2021/12/12 16:21:54;;;;;;;148.77;52.20;;;;;;;-1.88;88.03;100148.78;8431518;28;20062;-87
2021/12/12 16:26:00;;;;;;;158.63;54.10;;;;;;;-1.87;87.86;100154.91;8432276;28;20485;-84
2021/12/12 16:30:07;;;;;;;153.30;52.17;;;;;;;-1.92;88.33;100157.34;8427204;28;20121;-89
2021/12/12 16:34:13;;;;;;;164.13;53.20;;;;;;;-1.97;88.20;100170.38;8429607;28;20500;-90
2021/12/12 16:38:21;;;;;;;147.60;50.67;;;;;;;-1.95;88.15;100168.31;8428980;28;20044;-89
2021/12/12 16:42:25;;;;;;;141.40;50.80;;;;;;;-1.98;87.99;100160.78;8404908;28;20493;-87
2021/12/12 16:46:40;;;;;;;133.13;49.60;;;;;;;-1.98;88.41;100174.03;8428904;28;20078;-89
2021/12/12 16:50:50;;;;;;;134.20;46.10;;;;;;;-2.01;88.33;100163.84;8409479;28;20043;-90
2021/12/12 16:54:54;;;;;;;139.57;49.25;;;;;;;-2.00;87.99;100160.16;8426453;28;20052;-89
2021/12/12 16:59:28;;;;;;;233.73;69.05;;;;;;;-2.00;88.09;100160.97;8348674;28;20088;-90
2021/12/12 17:03:52;;;;;;;244.90;69.60;;;;;;;-2.02;88.08;100157.75;8327579;28;20541;-86
2021/12/12 17:08:03;;;;;;;198.60;60.95;;;;;;;-2.08;87.97;100152.44;8348027;28;20045;-86
2021/12/12 17:12:27;;;;;;;203.27;61.08;;;;;;;-2.17;87.88;100155.25;8341290;28;20037;-85
2021/12/12 17:16:31;;;;;;;150.27;49.75;;;;;;;-2.20;88.00;100145.06;8318633;28;20076;-87
2021/12/12 17:20:43;;;;;;;153.05;50.08;;;;;;;-2.20;88.02;100134.50;8355603;28;20041;-86
2021/12/12 17:24:52;;;;;;;168.75;53.50;;;;;;;-2.21;88.08;100138.16;8354477;28;20049;-87
2021/12/12 17:28:58;;;;;;;144.98;48.78;;;;;;;-2.26;87.84;100130.00;8375532;28;20036;-86
2021/12/12 17:33:15;;;;;;;156.70;50.13;;;;;;;-2.31;87.90;100145.66;8356277;28;20203;-86
2021/12/12 17:37:22;;;;;;;135.18;48.95;;;;;;;-2.35;88.35;100141.78;8416317;28;20489;-86
2021/12/12 17:41:29;;;;;;;137.75;47.58;;;;;;;-2.37;88.23;100138.53;8427449;28;20528;-87
2021/12/12 17:45:42;;;;;;;145.05;50.45;;;;;;;-2.39;88.22;100119.41;8422057;28;20056;-88
2021/12/12 17:50:17;;;;;;;153.77;50.22;;;;;;;-2.41;88.27;100102.91;8422984;28;20537;-90
2021/12/12 17:54:43;;;;;;;136.13;50.33;;;;;;;-2.43;88.23;100097.00;8435081;28;20047;-88
2021/12/12 17:59:09;;;;;;;152.90;50.97;;;;;;;-2.45;88.45;100085.81;8414958;28;20508;-86
2021/12/12 18:03:14;;;;;;;150.98;49.92;;;;;;;-2.44;88.26;100087.44;8329735;28;20049;-87
2021/12/12 18:07:53;;;;;;;146.77;52.17;;;;;;;-2.44;88.38;100092.75;8316635;28;20058;-87
2021/12/12 18:12:06;;;;;;;143.18;50.38;;;;;;;-2.45;88.32;100109.63;8331833;28;20466;-86
2021/12/12 18:16:07;;;;;;;158.15;54.88;;;;;;;-2.44;88.35;100121.84;8315676;28;20046;-85
2021/12/12 18:20:35;;;;;;;145.88;51.88;;;;;;;-2.41;88.35;100126.72;8332237;28;20080;-87
2021/12/12 18:24:38;;;;;;;145.70;52.53;;;;;;;-2.40;88.30;100123.06;8331636;28;20112;-84
2021/12/12 18:28:45;;;;;;;153.95;52.17;;;;;;;-2.39;88.21;100108.81;8331977;28;20133;-85
2021/12/12 18:32:47;;;;;;;157.00;50.97;;;;;;;-2.39;88.48;100087.66;8282623;28;20088;-86
2021/12/12 18:36:57;;;;;;;147.52;49.83;;;;;;;-2.39;88.53;100092.94;8299916;28;20050;-87
2021/12/12 18:41:03;;;;;;;163.50;51.97;;;;;;;-2.40;89.28;100096.59;8418944;28;20055;-88
2021/12/12 18:45:08;;;;;;;156.45;53.60;;;;;;;-2.32;88.88;100099.03;8414548;28;20048;-88
2021/12/12 18:49:12;;;;;;;164.70;53.95;;;;;;;-2.23;88.99;100108.44;8411834;28;20051;-85
2021/12/12 18:53:40;;;;;;;165.68;55.53;;;;;;;-2.15;88.77;100121.47;8434877;28;20389;-87
2021/12/12 18:57:49;;;;;;;171.15;56.08;;;;;;;-2.04;88.41;100127.19;8432222;28;20524;-87
2021/12/12 19:01:55;;;;;;;175.13;56.63;;;;;;;-1.94;88.30;100111.72;8397997;28;20460;-86
2021/12/12 19:05:56;;;;;;;184.00;59.85;;;;;;;-1.97;89.14;100101.53;8425765;28;20097;-85
2021/12/12 19:10:00;;;;;;;178.18;59.72;;;;;;;-1.93;89.00;100102.75;8399263;28;20382;-85
2021/12/12 19:14:09;;;;;;;166.68;57.50;;;;;;;-1.90;88.90;100097.03;8433240;28;20081;-84
2021/12/12 19:18:14;;;;;;;174.95;56.70;;;;;;;-1.80;89.13;100089.53;8432989;28;20042;-85